createdAt,value
2018-07-02T00:00:06.382Z,994.39
2018-07-02T00:01:06.554Z,994.40
2018-07-02T00:02:06.726Z,994.35
2018-07-02T00:03:06.906Z,994.33
2018-07-02T00:04:07.085Z,994.32
2018-07-02T00:05:07.268Z,994.29
2018-07-02T00:06:07.443Z,994.28
2018-07-02T00:07:07.619Z,994.25
2018-07-02T00:08:07.793Z,994.25
2018-07-02T00:09:07.967Z,994.25
2018-07-02T00:10:08.142Z,994.20
2018-07-02T00:11:08.314Z,994.19
2018-07-02T00:12:08.531Z,994.17
2018-07-02T00:13:08.709Z,994.20
2018-07-02T00:14:08.887Z,994.17
2018-07-02T00:15:09.058Z,994.19
2018-07-02T00:16:09.249Z,994.24
2018-07-02T00:17:09.404Z,994.23
2018-07-02T00:18:09.580Z,994.24
2018-07-02T00:19:10.095Z,994.25
2018-07-02T00:20:13.609Z,994.25
2018-07-02T00:21:12.940Z,994.26
2018-07-02T00:22:10.364Z,994.25
2018-07-02T00:23:10.648Z,994.25
2018-07-02T00:24:10.692Z,994.20
2018-07-02T00:25:10.849Z,994.22
2018-07-02T00:26:11.081Z,994.25
2018-07-02T00:27:13.217Z,994.27
2018-07-02T00:28:11.375Z,994.26
2018-07-02T00:29:11.348Z,994.25
2018-07-02T00:30:11.518Z,994.26
2018-07-02T00:31:11.706Z,994.23
2018-07-02T00:32:11.876Z,994.23
2018-07-02T00:33:12.045Z,994.24
2018-07-02T00:34:12.224Z,994.24
2018-07-02T00:35:12.395Z,994.20
2018-07-02T00:36:12.570Z,994.21
2018-07-02T00:37:12.742Z,994.20
2018-07-02T00:38:12.914Z,994.18
2018-07-02T00:39:13.091Z,994.16
2018-07-02T00:40:13.264Z,994.14
2018-07-02T00:41:13.442Z,994.15
2018-07-02T00:42:13.623Z,994.12
2018-07-02T00:43:13.804Z,994.16
2018-07-02T00:44:13.974Z,994.13
2018-07-02T00:45:14.149Z,994.14
2018-07-02T00:46:14.351Z,994.11
2018-07-02T00:47:14.540Z,994.16
2018-07-02T00:48:14.724Z,994.18
2018-07-02T00:49:14.905Z,994.17
2018-07-02T00:50:15.087Z,994.18
2018-07-02T00:51:15.269Z,994.19
2018-07-02T00:52:15.440Z,994.20
2018-07-02T00:53:15.623Z,994.17
2018-07-02T00:54:15.803Z,994.17
2018-07-02T00:55:15.979Z,994.13
2018-07-02T00:56:16.158Z,994.10
2018-07-02T00:57:16.328Z,994.07
2018-07-02T00:58:16.501Z,994.09
2018-07-02T00:59:16.681Z,994.11
2018-07-02T01:00:16.856Z,994.10
2018-07-02T01:01:17.027Z,994.10
2018-07-02T01:02:17.208Z,994.07
2018-07-02T01:03:17.379Z,994.07
2018-07-02T01:04:17.549Z,994.07
2018-07-02T01:05:17.723Z,994.11
2018-07-02T01:06:17.897Z,994.09
2018-07-02T01:07:18.079Z,994.08
2018-07-02T01:08:18.256Z,994.09
2018-07-02T01:09:18.427Z,994.06
2018-07-02T01:10:18.602Z,994.07
2018-07-02T01:11:18.781Z,994.09
2018-07-02T01:12:18.959Z,994.09
2018-07-02T01:13:19.133Z,994.12
2018-07-02T01:14:19.311Z,994.12
2018-07-02T01:15:19.486Z,994.10
2018-07-02T01:16:19.666Z,994.09
2018-07-02T01:17:19.845Z,994.08
2018-07-02T01:18:20.020Z,994.05
2018-07-02T01:19:20.197Z,994.05
2018-07-02T01:20:20.368Z,994.05
2018-07-02T01:21:20.541Z,994.00
2018-07-02T01:22:20.714Z,994.00
2018-07-02T01:23:20.888Z,994.00
2018-07-02T01:24:21.061Z,993.98
2018-07-02T01:25:21.243Z,993.97
2018-07-02T01:26:21.417Z,993.96
2018-07-02T01:27:21.599Z,993.97
2018-07-02T01:28:21.768Z,993.99
2018-07-02T01:29:21.945Z,993.97
2018-07-02T01:30:22.124Z,993.94
2018-07-02T01:31:22.297Z,993.95
2018-07-02T01:32:22.480Z,993.93
2018-07-02T01:33:22.660Z,993.93
2018-07-02T01:34:22.837Z,993.95
2018-07-02T01:35:23.006Z,993.98
2018-07-02T01:36:23.185Z,993.92
2018-07-02T01:37:23.360Z,993.95
2018-07-02T01:38:23.537Z,993.91
2018-07-02T01:39:23.714Z,993.92
2018-07-02T01:40:23.893Z,993.93
2018-07-02T01:41:24.071Z,993.91
2018-07-02T01:42:24.244Z,993.86
2018-07-02T01:43:24.411Z,993.86
2018-07-02T01:44:24.589Z,993.90
2018-07-02T01:45:24.763Z,993.86
2018-07-02T01:46:24.945Z,993.91
2018-07-02T01:47:25.126Z,993.92
2018-07-02T01:48:25.293Z,993.93
2018-07-02T01:49:25.469Z,993.96
2018-07-02T01:50:25.646Z,993.98
2018-07-02T01:51:25.822Z,994.00
2018-07-02T01:52:25.990Z,993.98
2018-07-02T01:53:26.159Z,993.97
2018-07-02T01:54:26.332Z,993.98
2018-07-02T01:55:26.512Z,993.97
2018-07-02T01:56:26.683Z,993.95
2018-07-02T01:57:26.864Z,993.94
2018-07-02T01:58:27.047Z,993.92
2018-07-02T01:59:27.212Z,993.89
2018-07-02T02:00:27.386Z,993.91
2018-07-02T02:01:27.561Z,993.91
2018-07-02T02:02:27.740Z,993.91
2018-07-02T02:03:27.911Z,993.93
2018-07-02T02:04:28.102Z,993.91
2018-07-02T02:05:28.275Z,993.96
2018-07-02T02:06:28.448Z,993.98
2018-07-02T02:07:28.623Z,993.95
2018-07-02T02:08:28.787Z,993.97
2018-07-02T02:09:28.963Z,993.97
2018-07-02T02:10:29.136Z,993.98
2018-07-02T02:11:29.309Z,993.95
2018-07-02T02:12:29.487Z,993.99
2018-07-02T02:13:29.662Z,993.96
2018-07-02T02:14:29.843Z,993.96
2018-07-02T02:15:30.020Z,993.94
2018-07-02T02:16:30.196Z,993.99
2018-07-02T02:17:30.370Z,993.97
2018-07-02T02:18:30.547Z,993.96
2018-07-02T02:19:30.725Z,993.94
2018-07-02T02:20:30.904Z,993.97
2018-07-02T02:21:31.078Z,993.92
2018-07-02T02:22:31.249Z,993.93
2018-07-02T02:23:31.429Z,993.94
2018-07-02T02:24:31.597Z,993.93
2018-07-02T02:25:31.770Z,993.97
2018-07-02T02:26:31.950Z,993.97
2018-07-02T02:27:32.131Z,994.01
2018-07-02T02:28:32.300Z,993.95
2018-07-02T02:29:32.473Z,993.96
2018-07-02T02:30:32.650Z,993.98
2018-07-02T02:31:32.821Z,993.95
2018-07-02T02:32:32.995Z,993.97
2018-07-02T02:33:33.169Z,993.97
2018-07-02T02:34:33.349Z,993.99
2018-07-02T02:35:33.513Z,993.96
2018-07-02T02:36:33.690Z,993.96
2018-07-02T02:37:33.859Z,993.94
2018-07-02T02:38:34.042Z,993.97
2018-07-02T02:39:34.205Z,993.93
2018-07-02T02:40:34.382Z,993.96
2018-07-02T02:41:34.560Z,993.95
2018-07-02T02:42:34.733Z,993.96
2018-07-02T02:43:34.914Z,993.98
2018-07-02T02:44:35.093Z,993.99
2018-07-02T02:45:35.270Z,994.02
2018-07-02T02:46:35.451Z,994.01
2018-07-02T02:47:35.621Z,994.00
2018-07-02T02:48:35.795Z,994.01
2018-07-02T02:49:35.973Z,994.00
2018-07-02T02:50:36.150Z,994.02
2018-07-02T02:51:36.323Z,993.98
2018-07-02T02:52:36.495Z,994.00
2018-07-02T02:53:36.669Z,994.00
2018-07-02T02:54:36.841Z,993.99
2018-07-02T02:55:37.012Z,994.00
2018-07-02T02:56:37.188Z,993.98
2018-07-02T02:57:37.365Z,994.03
2018-07-02T02:58:37.534Z,994.03
2018-07-02T02:59:37.712Z,994.07
2018-07-02T03:00:37.882Z,994.07
2018-07-02T03:01:38.055Z,994.11
2018-07-02T03:02:38.229Z,994.14
2018-07-02T03:03:38.398Z,994.12
2018-07-02T03:04:38.571Z,994.13
2018-07-02T03:05:38.742Z,994.11
2018-07-02T03:06:38.914Z,994.14
2018-07-02T03:07:39.083Z,994.14
2018-07-02T03:08:39.260Z,994.16
2018-07-02T03:09:39.520Z,994.14
2018-07-02T03:10:39.601Z,994.23
2018-07-02T03:11:39.774Z,994.22
2018-07-02T03:12:39.945Z,994.24
2018-07-02T03:13:40.128Z,994.24
2018-07-02T03:14:40.285Z,994.25
2018-07-02T03:15:40.468Z,994.23
2018-07-02T03:16:40.647Z,994.21
2018-07-02T03:17:40.835Z,994.22
2018-07-02T03:18:41.009Z,994.24
2018-07-02T03:19:41.181Z,994.21
2018-07-02T03:20:41.353Z,994.25
2018-07-02T03:21:41.525Z,994.23
2018-07-02T03:22:41.710Z,994.22
2018-07-02T03:23:41.884Z,994.24
2018-07-02T03:24:42.067Z,994.24
2018-07-02T03:25:42.239Z,994.22
2018-07-02T03:26:42.415Z,994.24
2018-07-02T03:27:42.593Z,994.23
2018-07-02T03:28:42.759Z,994.24
2018-07-02T03:29:42.936Z,994.24
2018-07-02T03:30:43.128Z,994.16
2018-07-02T03:31:43.300Z,994.17
2018-07-02T03:32:43.482Z,994.14
2018-07-02T03:33:43.656Z,994.13
2018-07-02T03:34:43.846Z,994.13
2018-07-02T03:35:44.018Z,994.14
2018-07-02T03:36:44.200Z,994.09
2018-07-02T03:37:44.373Z,994.12
2018-07-02T03:38:44.550Z,994.11
2018-07-02T03:39:44.719Z,994.12
2018-07-02T03:40:44.895Z,994.15
2018-07-02T03:41:45.071Z,994.12
2018-07-02T03:42:45.242Z,994.12
2018-07-02T03:43:45.413Z,994.13
2018-07-02T03:44:45.588Z,994.10
2018-07-02T03:45:45.772Z,994.12
2018-07-02T03:46:45.947Z,994.13
2018-07-02T03:47:46.114Z,994.10
2018-07-02T03:48:46.286Z,994.08
2018-07-02T03:49:46.462Z,994.06
2018-07-02T03:50:48.171Z,994.00
2018-07-02T03:51:48.678Z,994.03
2018-07-02T03:52:49.008Z,993.98
2018-07-02T03:53:49.416Z,994.01
2018-07-02T03:54:48.888Z,994.00
2018-07-02T03:55:48.305Z,994.00
2018-07-02T03:56:47.482Z,993.98
2018-07-02T03:57:51.143Z,994.05
2018-07-02T03:58:49.697Z,994.01
2018-07-02T03:59:49.202Z,994.05
2018-07-02T04:00:49.894Z,994.11
2018-07-02T04:01:53.896Z,994.13
2018-07-02T04:02:50.290Z,994.12
2018-07-02T04:03:48.653Z,994.12
2018-07-02T04:04:48.831Z,994.13
2018-07-02T04:05:49.008Z,994.13
2018-07-02T04:06:49.179Z,994.11
2018-07-02T04:07:49.346Z,994.12
2018-07-02T04:08:49.521Z,994.11
2018-07-02T04:09:49.692Z,994.13
2018-07-02T04:10:49.869Z,994.15
2018-07-02T04:11:50.045Z,994.15
2018-07-02T04:12:50.359Z,994.18
2018-07-02T04:13:50.363Z,994.16
2018-07-02T04:14:50.540Z,994.20
2018-07-02T04:15:50.710Z,994.13
2018-07-02T04:16:50.897Z,994.11
2018-07-02T04:17:51.076Z,994.11
2018-07-02T04:18:51.829Z,994.10
2018-07-02T04:19:51.394Z,994.14
2018-07-02T04:20:51.648Z,994.14
2018-07-02T04:21:51.701Z,994.11
2018-07-02T04:22:51.873Z,994.14
2018-07-02T04:23:52.108Z,994.12
2018-07-02T04:24:52.273Z,994.14
2018-07-02T04:25:52.483Z,994.20
2018-07-02T04:26:52.623Z,994.19
2018-07-02T04:27:52.813Z,994.20
2018-07-02T04:28:52.976Z,994.23
2018-07-02T04:29:53.161Z,994.19
2018-07-02T04:30:53.346Z,994.20
2018-07-02T04:31:53.529Z,994.20
2018-07-02T04:32:53.696Z,994.15
2018-07-02T04:33:53.879Z,994.17
2018-07-02T04:34:54.049Z,994.17
2018-07-02T04:35:54.224Z,994.19
2018-07-02T04:36:54.395Z,994.20
2018-07-02T04:37:54.571Z,994.20
2018-07-02T04:38:54.752Z,994.25
2018-07-02T04:39:54.929Z,994.23
2018-07-02T04:40:55.116Z,994.26
2018-07-02T04:41:55.291Z,994.27
2018-07-02T04:42:55.482Z,994.28
2018-07-02T04:43:55.660Z,994.31
2018-07-02T04:44:55.840Z,994.25
2018-07-02T04:45:56.019Z,994.23
2018-07-02T04:46:56.249Z,994.20
2018-07-02T04:47:56.326Z,994.25
2018-07-02T04:48:56.517Z,994.22
2018-07-02T04:49:56.719Z,994.23
2018-07-02T04:50:56.894Z,994.26
2018-07-02T04:51:57.881Z,994.20
2018-07-02T04:52:59.260Z,994.26
2018-07-02T04:53:58.919Z,994.26
2018-07-02T04:54:59.795Z,994.30
2018-07-02T04:55:59.883Z,994.32
2018-07-02T04:56:57.915Z,994.34
2018-07-02T04:58:00.604Z,994.35
2018-07-02T04:58:58.995Z,994.36
2018-07-02T04:59:59.102Z,994.40
2018-07-02T05:00:59.954Z,994.37
2018-07-02T05:01:58.851Z,994.39
2018-07-02T05:02:59.071Z,994.38
2018-07-02T05:03:59.161Z,994.41
2018-07-02T05:04:59.377Z,994.39
2018-07-02T05:05:59.575Z,994.40
2018-07-02T05:06:59.821Z,994.40
2018-07-02T05:07:59.882Z,994.41
2018-07-02T05:09:00.084Z,994.37
2018-07-02T05:10:00.390Z,994.39
2018-07-02T05:11:00.456Z,994.38
2018-07-02T05:12:00.651Z,994.35
2018-07-02T05:13:00.862Z,994.39
2018-07-02T05:14:01.760Z,994.43
2018-07-02T05:15:01.103Z,994.41
2018-07-02T05:16:01.343Z,994.40
2018-07-02T05:17:01.608Z,994.38
2018-07-02T05:18:01.573Z,994.37
2018-07-02T05:19:03.304Z,994.38
2018-07-02T05:20:02.208Z,994.42
2018-07-02T05:21:02.309Z,994.42
2018-07-02T05:22:02.377Z,994.39
2018-07-02T05:23:02.594Z,994.44
2018-07-02T05:24:02.674Z,994.39
2018-07-02T05:25:02.853Z,994.43
2018-07-02T05:26:03.034Z,994.43
2018-07-02T05:27:03.298Z,994.46
2018-07-02T05:28:03.371Z,994.45
2018-07-02T05:29:03.578Z,994.47
2018-07-02T05:30:03.644Z,994.41
2018-07-02T05:31:03.827Z,994.44
2018-07-02T05:32:03.990Z,994.47
2018-07-02T05:33:04.168Z,994.42
2018-07-02T05:34:04.336Z,994.39
2018-07-02T05:35:04.528Z,994.44
2018-07-02T05:36:05.064Z,994.47
2018-07-02T05:37:05.003Z,994.44
2018-07-02T05:38:05.060Z,994.41
2018-07-02T05:39:05.230Z,994.43
2018-07-02T05:40:05.428Z,994.40
2018-07-02T05:41:05.583Z,994.36
2018-07-02T05:42:05.790Z,994.34
2018-07-02T05:43:05.969Z,994.39
2018-07-02T05:44:06.144Z,994.36
2018-07-02T05:45:06.337Z,994.38
2018-07-02T05:46:06.508Z,994.39
2018-07-02T05:47:06.685Z,994.39
2018-07-02T05:48:06.864Z,994.38
2018-07-02T05:49:07.066Z,994.42
2018-07-02T05:50:07.298Z,994.43
2018-07-02T05:51:07.488Z,994.43
2018-07-02T05:52:07.800Z,994.42
2018-07-02T05:53:07.864Z,994.44
2018-07-02T05:54:08.032Z,994.45
2018-07-02T05:55:08.212Z,994.49
2018-07-02T05:56:08.389Z,994.45
2018-07-02T05:57:08.565Z,994.48
2018-07-02T05:58:08.742Z,994.46
2018-07-02T05:59:08.913Z,994.48
2018-07-02T06:00:09.139Z,994.51
2018-07-02T06:01:09.272Z,994.50
2018-07-02T06:02:09.451Z,994.50
2018-07-02T06:03:09.624Z,994.46
2018-07-02T06:04:09.831Z,994.50
2018-07-02T06:05:10.018Z,994.49
2018-07-02T06:06:10.199Z,994.53
2018-07-02T06:07:10.414Z,994.50
2018-07-02T06:08:10.646Z,994.57
2018-07-02T06:09:10.781Z,994.64
2018-07-02T06:10:10.961Z,994.76
2018-07-02T06:11:11.132Z,994.91
2018-07-02T06:12:11.312Z,995.12
2018-07-02T06:13:11.501Z,995.28
2018-07-02T06:14:11.669Z,995.40
2018-07-02T06:15:11.844Z,995.53
2018-07-02T06:16:12.025Z,995.51
2018-07-02T06:17:12.207Z,995.55
2018-07-02T06:18:12.387Z,995.62
2018-07-02T06:19:12.568Z,995.69
2018-07-02T06:20:12.780Z,995.75
2018-07-02T06:21:12.974Z,996.36
2018-07-02T06:22:13.164Z,997.63
2018-07-02T06:23:13.340Z,998.39
2018-07-02T06:24:13.519Z,998.30
2018-07-02T06:25:13.705Z,998.23
2018-07-02T06:26:13.882Z,998.17
2018-07-02T06:27:14.060Z,998.01
2018-07-02T06:28:14.246Z,997.91
2018-07-02T06:29:14.427Z,997.86
2018-07-02T06:30:14.628Z,997.83
2018-07-02T06:31:14.807Z,997.75
2018-07-02T06:32:14.990Z,997.67
2018-07-02T06:33:15.180Z,997.61
2018-07-02T06:34:15.358Z,997.51
2018-07-02T06:35:15.548Z,997.40
2018-07-02T06:36:16.829Z,997.37
2018-07-02T06:37:15.921Z,997.27
2018-07-02T06:38:16.097Z,997.29
2018-07-02T06:39:16.286Z,997.26
2018-07-02T06:40:16.479Z,997.22
2018-07-02T06:41:16.658Z,997.26
2018-07-02T06:42:16.933Z,997.17
2018-07-02T06:43:16.985Z,997.12
2018-07-02T06:44:17.173Z,997.10
2018-07-02T06:45:17.355Z,997.01
2018-07-02T06:46:17.540Z,997.03
2018-07-02T06:47:17.724Z,997.01
2018-07-02T06:48:17.907Z,996.95
2018-07-02T06:49:18.096Z,996.93
2018-07-02T06:50:18.287Z,996.90
2018-07-02T06:51:18.474Z,996.90
2018-07-02T06:52:18.667Z,996.83
2018-07-02T06:53:18.855Z,996.79
2018-07-02T06:54:19.047Z,996.78
2018-07-02T06:55:19.232Z,996.72
2018-07-02T06:56:19.426Z,996.68
2018-07-02T06:57:19.614Z,996.65
2018-07-02T06:58:19.803Z,996.57
2018-07-02T06:59:19.990Z,996.52
2018-07-02T07:00:20.181Z,996.56
2018-07-02T07:01:20.384Z,996.52
2018-07-02T07:02:20.705Z,996.50
2018-07-02T07:03:20.822Z,996.51
2018-07-02T07:04:23.796Z,996.45
2018-07-02T07:05:22.761Z,996.48
2018-07-02T07:06:24.080Z,996.42
2018-07-02T07:07:23.111Z,996.37
2018-07-02T07:08:25.448Z,996.34
2018-07-02T07:09:24.518Z,996.29
2018-07-02T07:10:21.937Z,996.28
2018-07-02T07:11:22.125Z,996.24
2018-07-02T07:12:22.320Z,996.29
2018-07-02T07:13:22.648Z,996.25
2018-07-02T07:14:22.771Z,996.22
2018-07-02T07:15:22.837Z,996.21
2018-07-02T07:16:23.028Z,996.13
2018-07-02T07:17:23.220Z,996.14
2018-07-02T07:18:23.414Z,996.19
2018-07-02T07:19:23.610Z,996.17
2018-07-02T07:20:23.938Z,996.13
2018-07-02T07:21:24.069Z,996.09
2018-07-02T07:22:24.273Z,996.09
2018-07-02T07:23:24.339Z,996.11
2018-07-02T07:24:24.530Z,996.12
2018-07-02T07:25:24.715Z,996.08
2018-07-02T07:26:24.906Z,996.10
2018-07-02T07:27:25.097Z,996.08
2018-07-02T07:28:25.298Z,996.01
2018-07-02T07:29:25.515Z,996.01
2018-07-02T07:30:26.010Z,995.99
2018-07-02T07:31:25.850Z,996.02
2018-07-02T07:32:26.043Z,995.95
2018-07-02T07:33:26.227Z,995.90
2018-07-02T07:34:26.413Z,995.87
2018-07-02T07:35:26.610Z,995.85
2018-07-02T07:36:26.815Z,995.85
2018-07-02T07:37:27.065Z,995.80
2018-07-02T07:38:27.240Z,995.71
2018-07-02T07:39:27.444Z,995.70
2018-07-02T07:40:27.639Z,995.74
2018-07-02T07:41:27.830Z,995.72
2018-07-02T07:42:28.021Z,995.73
2018-07-02T07:43:28.208Z,995.71
2018-07-02T07:44:28.408Z,995.70
2018-07-02T07:45:28.596Z,995.69
2018-07-02T07:46:28.785Z,995.70
2018-07-02T07:47:28.987Z,995.66
2018-07-02T07:48:29.161Z,995.62
2018-07-02T07:49:29.355Z,995.63
2018-07-02T07:50:29.547Z,995.59
2018-07-02T07:51:29.756Z,995.55
2018-07-02T07:52:29.940Z,995.59
2018-07-02T07:53:30.135Z,995.55
2018-07-02T07:54:30.408Z,995.55
2018-07-02T07:55:30.473Z,995.59
2018-07-02T07:56:30.679Z,995.64
2018-07-02T07:57:33.611Z,995.63
2018-07-02T07:58:33.039Z,995.64
2018-07-02T07:59:33.127Z,995.57
2018-07-02T08:00:32.828Z,995.60
2018-07-02T08:01:34.964Z,995.65
2018-07-02T08:02:32.164Z,995.63
2018-07-02T08:03:32.055Z,995.68
2018-07-02T08:04:32.225Z,995.76
2018-07-02T08:05:32.915Z,995.69
2018-07-02T08:06:32.627Z,995.68
2018-07-02T08:07:32.829Z,995.70
2018-07-02T08:08:33.040Z,995.68
2018-07-02T08:09:33.212Z,995.70
2018-07-02T08:10:33.418Z,995.67
2018-07-02T08:11:33.598Z,995.67
2018-07-02T08:12:33.794Z,995.61
2018-07-02T08:13:33.980Z,995.64
2018-07-02T08:14:34.165Z,995.69
2018-07-02T08:15:34.360Z,995.68
2018-07-02T08:16:34.547Z,995.69
2018-07-02T08:17:34.742Z,995.69
2018-07-02T08:18:34.943Z,995.70
2018-07-02T08:19:37.080Z,995.67
2018-07-02T08:20:36.502Z,995.69
2018-07-02T08:21:35.794Z,995.68
2018-07-02T08:22:35.809Z,995.70
2018-07-02T08:23:35.757Z,995.61
2018-07-02T08:24:36.061Z,995.58
2018-07-02T08:25:36.090Z,995.55
2018-07-02T08:26:36.293Z,995.55
2018-07-02T08:27:36.479Z,995.57
2018-07-02T08:28:36.671Z,995.55
2018-07-02T08:29:36.866Z,995.57
2018-07-02T08:30:37.072Z,995.55
2018-07-02T08:31:37.272Z,995.57
2018-07-02T08:32:37.462Z,995.56
2018-07-02T08:33:37.672Z,995.58
2018-07-02T08:34:37.891Z,995.64
2018-07-02T08:35:38.114Z,995.60
2018-07-02T08:36:38.315Z,995.56
2018-07-02T08:37:38.615Z,995.57
2018-07-02T08:38:38.684Z,995.60
2018-07-02T08:39:38.964Z,995.61
2018-07-02T08:40:39.093Z,995.52
2018-07-02T08:41:39.329Z,995.49
2018-07-02T08:42:39.509Z,995.46
2018-07-02T08:43:39.764Z,995.46
2018-07-02T08:44:39.951Z,995.44
2018-07-02T08:45:40.233Z,995.44
2018-07-02T08:46:40.326Z,995.43
2018-07-02T08:47:40.492Z,995.58
2018-07-02T08:48:40.699Z,995.48
2018-07-02T08:49:40.894Z,995.51
2018-07-02T08:50:41.109Z,995.51
2018-07-02T08:51:41.326Z,995.57
2018-07-02T08:52:41.548Z,995.47
2018-07-02T08:53:41.724Z,995.27
2018-07-02T08:54:41.919Z,995.22
2018-07-02T08:55:42.122Z,995.15
2018-07-02T08:56:42.308Z,995.07
2018-07-02T08:57:42.512Z,995.04
2018-07-02T08:58:42.705Z,994.98
2018-07-02T08:59:42.903Z,994.96
2018-07-02T09:00:43.097Z,994.97
2018-07-02T09:01:43.292Z,994.97
2018-07-02T09:02:43.478Z,994.93
2018-07-02T09:03:43.670Z,994.99
2018-07-02T09:04:43.862Z,994.96
2018-07-02T09:05:44.056Z,994.96
2018-07-02T09:06:44.286Z,994.95
2018-07-02T09:07:44.444Z,995.00
2018-07-02T09:08:44.642Z,994.99
2018-07-02T09:09:44.878Z,995.01
2018-07-02T09:10:45.032Z,995.02
2018-07-02T09:11:45.209Z,994.99
2018-07-02T09:12:45.397Z,994.97
2018-07-02T09:13:45.597Z,994.98
2018-07-02T09:14:45.813Z,995.04
2018-07-02T09:15:45.981Z,995.03
2018-07-02T09:16:46.177Z,994.99
2018-07-02T09:17:46.424Z,994.99
2018-07-02T09:18:46.554Z,994.99
2018-07-02T09:19:46.748Z,995.02
2018-07-02T09:20:46.963Z,994.97
2018-07-02T09:21:47.133Z,994.96
2018-07-02T09:22:47.325Z,994.98
2018-07-02T09:23:47.574Z,994.95
2018-07-02T09:24:47.736Z,994.99
2018-07-02T09:25:47.960Z,994.98
2018-07-02T09:26:48.337Z,994.97
2018-07-02T09:27:48.351Z,994.96
2018-07-02T09:28:48.542Z,994.95
2018-07-02T09:29:48.980Z,994.92
2018-07-02T09:30:48.961Z,994.88
2018-07-02T09:31:49.272Z,994.87
2018-07-02T09:32:49.339Z,994.84
2018-07-02T09:33:49.567Z,994.83
2018-07-02T09:34:49.800Z,994.81
2018-07-02T09:35:49.989Z,994.87
2018-07-02T09:36:50.185Z,994.83
2018-07-02T09:37:50.667Z,994.80
2018-07-02T09:38:50.581Z,994.78
2018-07-02T09:39:50.771Z,994.77
2018-07-02T09:40:50.962Z,994.78
2018-07-02T09:41:51.148Z,994.74
2018-07-02T09:42:51.343Z,994.75
2018-07-02T09:43:51.540Z,994.75
2018-07-02T09:44:51.764Z,994.74
2018-07-02T09:45:51.953Z,994.77
2018-07-02T09:46:53.355Z,994.79
2018-07-02T09:47:54.269Z,994.80
2018-07-02T09:48:54.812Z,994.93
2018-07-02T09:49:54.291Z,994.90
2018-07-02T09:50:53.461Z,994.88
2018-07-02T09:51:54.451Z,994.82
2018-07-02T09:52:54.962Z,994.80
2018-07-02T09:53:55.364Z,994.83
2018-07-02T09:54:59.571Z,994.78
2018-07-02T09:55:56.146Z,994.81
2018-07-02T09:56:54.381Z,994.78
2018-07-02T09:57:57.538Z,994.75
2018-07-02T09:58:55.606Z,994.70
2018-07-02T09:59:56.551Z,994.61
2018-07-02T10:00:54.582Z,994.58
2018-07-02T10:01:54.781Z,994.48
2018-07-02T10:02:54.971Z,994.69
2018-07-02T10:03:55.160Z,994.60
2018-07-02T10:04:55.351Z,994.61
2018-07-02T10:05:55.551Z,994.57
2018-07-02T10:06:55.752Z,994.56
2018-07-02T10:07:55.959Z,994.58
2018-07-02T10:08:56.161Z,994.60
2018-07-02T10:09:56.328Z,994.52
2018-07-02T10:10:56.517Z,994.56
2018-07-02T10:11:56.899Z,994.45
2018-07-02T10:12:56.910Z,994.46
2018-07-02T10:13:57.092Z,994.45
2018-07-02T10:14:57.289Z,994.36
2018-07-02T10:15:57.470Z,994.29
2018-07-02T10:16:57.664Z,994.21
2018-07-02T10:17:57.853Z,994.24
2018-07-02T10:18:58.036Z,994.22
2018-07-02T10:19:58.217Z,994.22
2018-07-02T10:20:58.404Z,994.19
2018-07-02T10:21:58.590Z,994.22
2018-07-02T10:22:58.778Z,994.13
2018-07-02T10:23:59.008Z,994.06
2018-07-02T10:24:59.158Z,994.00
2018-07-02T10:25:59.421Z,993.96
2018-07-02T10:26:59.535Z,993.90
2018-07-02T10:27:59.738Z,993.91
2018-07-02T10:28:59.934Z,993.84
2018-07-02T10:30:00.120Z,993.92
2018-07-02T10:31:00.339Z,993.85
2018-07-02T10:32:00.490Z,993.88
2018-07-02T10:33:00.676Z,993.88
2018-07-02T10:34:00.867Z,993.84
2018-07-02T10:35:01.060Z,993.82
2018-07-02T10:36:01.241Z,993.90
2018-07-02T10:37:01.424Z,993.78
2018-07-02T10:38:01.607Z,993.80
2018-07-02T10:39:01.827Z,993.80
2018-07-02T10:40:02.260Z,993.83
2018-07-02T10:41:02.148Z,993.81
2018-07-02T10:42:02.335Z,993.77
2018-07-02T10:43:02.517Z,993.75
2018-07-02T10:44:02.710Z,993.80
2018-07-02T10:45:02.899Z,993.74
2018-07-02T10:46:03.149Z,993.71
2018-07-02T10:47:03.225Z,993.77
2018-07-02T10:48:03.409Z,993.78
2018-07-02T10:49:03.611Z,993.77
2018-07-02T10:50:03.789Z,993.74
2018-07-02T10:51:03.982Z,993.71
2018-07-02T10:52:04.175Z,993.67
2018-07-02T10:53:04.362Z,993.63
2018-07-02T10:54:04.573Z,993.67
2018-07-02T10:55:04.756Z,993.72
2018-07-02T10:56:04.940Z,993.69
2018-07-02T10:57:05.121Z,993.75
2018-07-02T10:58:05.301Z,993.73
2018-07-02T10:59:05.483Z,993.68
2018-07-02T11:00:05.662Z,993.61
2018-07-02T11:01:05.855Z,993.52
2018-07-02T11:02:06.054Z,993.55
2018-07-02T11:03:08.074Z,993.54
2018-07-02T11:04:07.272Z,993.52
2018-07-02T11:05:06.530Z,993.52
2018-07-02T11:06:07.148Z,993.54
2018-07-02T11:07:09.016Z,993.52
2018-07-02T11:08:08.827Z,993.68
2018-07-02T11:09:08.796Z,993.62
2018-07-02T11:10:09.520Z,993.69
2018-07-02T11:11:08.902Z,993.67
2018-07-02T11:12:11.159Z,993.65
2018-07-02T11:13:10.742Z,993.68
2018-07-02T11:14:12.174Z,993.71
2018-07-02T11:15:09.144Z,993.64
2018-07-02T11:16:11.313Z,993.66
2018-07-02T11:17:10.554Z,993.67
2018-07-02T11:18:10.909Z,993.65
2018-07-02T11:19:10.830Z,993.65
2018-07-02T11:20:09.406Z,993.59
2018-07-02T11:21:09.696Z,993.57
2018-07-02T11:22:09.870Z,993.59
2018-07-02T11:23:10.169Z,993.57
2018-07-02T11:24:09.984Z,993.55
2018-07-02T11:25:10.171Z,993.55
2018-07-02T11:26:10.358Z,993.53
2018-07-02T11:27:10.553Z,993.53
2018-07-02T11:28:10.996Z,993.54
2018-07-02T11:29:10.975Z,993.52
2018-07-02T11:30:11.042Z,993.52
2018-07-02T11:31:11.230Z,993.48
2018-07-02T11:32:11.414Z,993.49
2018-07-02T11:33:11.610Z,993.51
2018-07-02T11:34:12.499Z,993.46
2018-07-02T11:35:11.941Z,993.41
2018-07-02T11:36:12.136Z,993.48
2018-07-02T11:37:12.329Z,993.45
2018-07-02T11:38:12.510Z,993.42
2018-07-02T11:39:12.697Z,993.46
2018-07-02T11:40:13.097Z,993.48
2018-07-02T11:41:13.656Z,993.46
2018-07-02T11:42:14.776Z,993.44
2018-07-02T11:43:13.724Z,993.41
2018-07-02T11:44:13.643Z,993.45
2018-07-02T11:45:14.116Z,993.51
2018-07-02T11:46:13.819Z,993.42
2018-07-02T11:47:14.003Z,993.49
2018-07-02T11:48:14.252Z,993.45
2018-07-02T11:49:14.410Z,993.46
2018-07-02T11:50:14.605Z,993.45
2018-07-02T11:51:14.793Z,993.43
2018-07-02T11:52:14.984Z,993.38
2018-07-02T11:53:15.169Z,993.34
2018-07-02T11:54:15.360Z,993.31
2018-07-02T11:55:15.545Z,993.32
2018-07-02T11:56:15.735Z,993.30
2018-07-02T11:57:15.929Z,993.35
2018-07-02T11:58:16.108Z,993.34
2018-07-02T11:59:16.321Z,993.27
2018-07-02T12:00:16.501Z,993.31
2018-07-02T12:01:16.692Z,993.31
2018-07-02T12:02:16.883Z,993.34
2018-07-02T12:03:17.077Z,993.29
2018-07-02T12:04:17.284Z,993.26
2018-07-02T12:05:17.447Z,993.26
2018-07-02T12:06:17.641Z,993.28
2018-07-02T12:07:17.825Z,993.23
2018-07-02T12:08:18.007Z,993.20
2018-07-02T12:09:18.196Z,993.20
2018-07-02T12:10:19.331Z,993.19
2018-07-02T12:11:18.526Z,993.20
2018-07-02T12:12:21.909Z,993.19
2018-07-02T12:13:21.640Z,993.18
2018-07-02T12:14:21.744Z,993.20
2018-07-02T12:15:20.139Z,993.20
2018-07-02T12:16:20.503Z,993.23
2018-07-02T12:17:21.813Z,993.27
2018-07-02T12:18:19.728Z,993.24
2018-07-02T12:19:19.919Z,993.22
2018-07-02T12:20:20.104Z,993.17
2018-07-02T12:21:20.328Z,993.19
2018-07-02T12:22:20.706Z,993.11
2018-07-02T12:23:20.713Z,993.11
2018-07-02T12:24:20.903Z,993.17
2018-07-02T12:25:21.447Z,993.10
2018-07-02T12:26:21.464Z,993.16
2018-07-02T12:27:21.464Z,993.11
2018-07-02T12:28:21.645Z,993.16
2018-07-02T12:29:21.844Z,993.10
2018-07-02T12:30:22.250Z,993.17